Time;durP1;ratioP1;P1;durP2;ratioP2;P2;SDS_P1;SDS_P2;PMS_P1;PMS_P2;Temp;Humidity;BMP_temperature;BMP_pressure;BME280_temperature;BME280_humidity;BME280_pressure;Samples;Min_cycle;Max_cycle;Signal;HPM_P1;HPM_P2
2023/12/04 00:05:14;;;;;;;4.93;3.20;;;-0.20;1.00;;;;;;10364183;28;20198;-83
2023/12/04 00:10:35;;;;;;;5.17;2.93;;;-0.10;1.00;;;;;;10388442;28;20203;-82
2023/12/04 00:15:56;;;;;;;5.37;3.17;;;-0.10;1.00;;;;;;10410379;28;20283;-82
2023/12/04 00:21:18;;;;;;;4.53;3.10;;;-0.10;99.90;;;;;;10386081;28;20259;-82
2023/12/04 00:26:39;;;;;;;5.50;3.00;;;-0.10;99.90;;;;;;10400780;28;20200;-82
2023/12/04 00:32:00;;;;;;;5.23;2.73;;;-0.10;1.00;;;;;;10414663;28;20218;-81
2023/12/04 00:37:22;;;;;;;4.67;2.87;;;-0.10;1.00;;;;;;10400164;28;20290;-81
2023/12/04 00:42:43;;;;;;;5.07;3.03;;;-0.10;99.90;;;;;;10373505;28;20464;-82
2023/12/04 00:48:04;;;;;;;6.17;3.57;;;-0.20;1.00;;;;;;10371632;28;20495;-81
2023/12/04 00:53:25;;;;;;;4.33;3.30;;;-0.20;1.00;;;;;;10386241;28;20232;-82
2023/12/04 00:58:46;;;;;;;6.30;3.50;;;-0.20;1.00;;;;;;10385320;28;20262;-82
2023/12/04 01:04:08;;;;;;;5.23;3.50;;;-0.30;1.00;;;;;;10413023;28;20198;-82
2023/12/04 01:09:29;;;;;;;4.73;3.20;;;-0.30;1.00;;;;;;10385021;28;20203;-81
2023/12/04 01:14:50;;;;;;;9.27;3.87;;;-0.30;1.00;;;;;;10374089;28;20210;-82
2023/12/04 01:20:13;;;;;;;3.50;3.10;;;-0.40;99.90;;;;;;10371704;28;20228;-81
2023/12/04 01:25:34;;;;;;;5.80;3.80;;;-0.40;1.00;;;;;;10425421;28;20385;-83
2023/12/04 01:30:56;;;;;;;6.03;3.87;;;-0.40;99.90;;;;;;10399238;28;20210;-81
2023/12/04 01:36:18;;;;;;;5.50;3.90;;;-0.40;99.90;;;;;;10411660;28;20196;-81
2023/12/04 01:41:40;;;;;;;7.20;4.00;;;-0.50;99.90;;;;;;10390294;28;20217;-82
2023/12/04 01:47:02;;;;;;;7.37;3.90;;;-0.50;1.00;;;;;;10397177;28;20480;-81
2023/12/04 01:52:23;;;;;;;4.10;3.20;;;-0.60;99.90;;;;;;10429646;28;20249;-82
2023/12/04 01:57:45;;;;;;;5.43;3.67;;;-0.70;1.00;;;;;;10427051;28;20199;-81
2023/12/04 02:03:08;;;;;;;5.13;3.30;;;-0.70;6.70;;;;;;10359016;28;20279;-80
2023/12/04 02:08:30;;;;;;;5.07;3.30;;;-0.80;1.00;;;;;;10396384;28;20404;-81
2023/12/04 02:13:51;;;;;;;7.87;4.50;;;-1.00;99.90;;;;;;10370425;28;20498;-82
2023/12/04 02:19:12;;;;;;;6.87;3.83;;;-1.20;1.00;;;;;;10369512;28;20229;-81
2023/12/04 02:24:34;;;;;;;5.40;3.83;;;-1.30;99.90;;;;;;10424335;28;20229;-82
2023/12/04 02:30:01;;;;;;;5.33;4.10;;;-1.50;99.90;;;;;;10348113;28;20263;-82
2023/12/04 02:35:25;;;;;;;7.33;3.63;;;-1.50;99.90;;;;;;10368831;28;20193;-81
2023/12/04 02:40:47;;;;;;;7.53;4.00;;;-1.50;99.90;;;;;;10405044;28;20442;-82
2023/12/04 02:46:09;;;;;;;6.20;3.60;;;-1.50;99.90;;;;;;10395445;28;20488;-82
2023/12/04 02:51:30;;;;;;;4.27;3.53;;;-1.40;1.00;;;;;;10395060;28;20427;-81
2023/12/04 02:56:51;;;;;;;6.10;3.63;;;-1.40;1.00;;;;;;10388775;28;20222;-81
2023/12/04 03:02:12;;;;;;;4.40;3.30;;;-1.30;1.00;;;;;;10368202;28;20225;-82
2023/12/04 03:07:33;;;;;;;5.63;3.40;;;-1.40;1.00;;;;;;10394367;28;20198;-82
2023/12/04 03:12:54;;;;;;;7.17;4.30;;;-1.50;1.00;;;;;;10394092;28;20198;-81
2023/12/04 03:18:16;;;;;;;7.50;4.20;;;-1.60;99.90;;;;;;10393905;28;20267;-81
2023/12/04 03:23:37;;;;;;;6.57;4.57;;;-1.70;99.90;;;;;;10412901;28;20223;-81
2023/12/04 03:28:58;;;;;;;4.20;3.63;;;-1.90;1.00;;;;;;10381787;28;20449;-81
2023/12/04 03:34:19;;;;;;;5.73;4.00;;;-1.90;1.00;;;;;;10407846;28;20551;-81
2023/12/04 03:39:41;;;;;;;5.67;3.53;;;-1.90;1.00;;;;;;10394838;28;20226;-81
2023/12/04 03:45:02;;;;;;;3.70;2.80;;;-2.00;99.90;;;;;;10399005;28;20387;-81
2023/12/04 03:50:23;;;;;;;4.20;3.00;;;-2.00;1.00;;;;;;10410018;28;20510;-81
2023/12/04 03:55:44;;;;;;;5.90;3.67;;;-2.00;99.90;;;;;;10392990;28;20196;-81
2023/12/04 04:01:06;;;;;;;4.83;3.40;;;-1.80;1.00;;;;;;10381771;28;20403;-81
2023/12/04 04:06:27;;;;;;;5.13;3.50;;;-1.60;99.90;;;;;;10393350;28;20371;-81
2023/12/04 04:11:48;;;;;;;4.70;3.63;;;-1.50;99.90;;;;;;10421676;28;20272;-79
2023/12/04 04:17:09;;;;;;;5.83;4.30;;;-1.40;1.00;;;;;;10393122;28;20254;-82
2023/12/04 04:22:34;;;;;;;5.77;4.57;;;-1.20;99.90;;;;;;10425115;28;20229;-81
2023/12/04 04:27:55;;;;;;;7.30;4.57;;;-1.30;1.00;;;;;;10385563;28;20230;-79
2023/12/04 04:33:17;;;;;;;8.30;4.87;;;-1.20;1.00;;;;;;10414611;28;20271;-80
2023/12/04 04:38:40;;;;;;;7.13;4.50;;;-1.20;99.90;;;;;;10433118;28;20199;-80
2023/12/04 04:44:01;;;;;;;5.47;4.00;;;-1.20;99.90;;;;;;10413710;28;20246;-80
2023/12/04 04:49:22;;;;;;;5.70;4.37;;;-1.20;90.40;;;;;;10415858;28;20231;-80
2023/12/04 04:54:43;;;;;;;7.07;4.60;;;-1.20;1.00;;;;;;10399289;28;20518;-81
2023/12/04 05:00:05;;;;;;;9.47;5.33;;;-1.30;1.00;;;;;;10384436;28;20278;-80
2023/12/04 05:05:26;;;;;;;7.63;5.53;;;-1.20;99.90;;;;;;10385018;28;20293;-80
2023/12/04 05:10:48;;;;;;;7.13;5.17;;;-1.20;99.90;;;;;;10431365;28;20230;-81
2023/12/04 05:16:10;;;;;;;8.80;5.30;;;-1.10;1.00;;;;;;10432095;28;20214;-81
2023/12/04 05:21:31;;;;;;;8.33;5.63;;;-1.00;99.90;;;;;;10436966;28;20533;-81
2023/12/04 05:26:52;;;;;;;6.97;5.60;;;-1.00;1.00;;;;;;10405367;28;20203;-81
2023/12/04 05:32:13;;;;;;;8.13;5.40;;;-1.00;99.90;;;;;;10391127;28;20319;-80
2023/12/04 05:37:35;;;;;;;8.97;6.17;;;-0.90;99.90;;;;;;10375585;28;20196;-80
2023/12/04 05:42:56;;;;;;;9.60;6.10;;;-0.90;1.00;;;;;;10419022;28;20308;-80
2023/12/04 05:48:17;;;;;;;13.17;7.93;;;-0.90;92.30;;;;;;10416260;28;20199;-79
2023/12/04 05:53:39;;;;;;;19.77;10.97;;;-0.80;99.90;;;;;;10414031;28;20207;-81
2023/12/04 05:59:00;;;;;;;16.90;9.77;;;-0.90;1.00;;;;;;10412930;28;20241;-82
2023/12/04 06:04:21;;;;;;;12.13;7.63;;;-0.80;99.90;;;;;;10427046;28;20404;-82
2023/12/04 06:09:42;;;;;;;11.13;7.23;;;-0.70;99.90;;;;;;10415682;28;20245;-82
2023/12/04 06:15:04;;;;;;;19.40;11.33;;;-0.60;99.90;;;;;;10414788;28;20207;-83
2023/12/04 06:20:26;;;;;;;13.13;8.17;;;-0.50;99.90;;;;;;10415694;28;20223;-83
2023/12/04 06:25:47;;;;;;;15.63;9.37;;;-0.50;1.00;;;;;;10415205;28;20193;-84
2023/12/04 06:31:09;;;;;;;14.33;9.20;;;-0.50;99.90;;;;;;10384833;28;20200;-82
2023/12/04 06:36:34;;;;;;;12.63;7.23;;;-0.50;99.90;;;;;;10355790;28;20207;-82
2023/12/04 06:41:55;;;;;;;10.33;7.73;;;-0.50;1.00;;;;;;10395148;28;20242;-81
2023/12/04 06:47:22;;;;;;;13.47;9.43;;;-0.50;1.00;;;;;;10397042;28;20199;-81
2023/12/04 06:52:43;;;;;;;17.97;11.03;;;-0.50;99.90;;;;;;10396939;28;20309;-84
2023/12/04 06:58:04;;;;;;;18.87;11.00;;;-0.50;99.90;;;;;;10397288;28;20234;-82
2023/12/04 07:03:26;;;;;;;18.23;11.63;;;-0.50;99.90;;;;;;10408441;28;20629;-83
2023/12/04 07:08:51;;;;;;;24.43;14.60;;;-0.50;1.00;;;;;;10425238;28;20203;-79
2023/12/04 07:14:13;;;;;;;25.27;15.37;;;-0.50;1.00;;;;;;10422553;28;20193;-82
2023/12/04 07:19:35;;;;;;;29.77;16.53;;;-0.40;99.90;;;;;;10421945;28;20199;-79
2023/12/04 07:24:57;;;;;;;68.50;40.73;;;-0.30;10.30;;;;;;10401279;28;20261;-82
2023/12/04 07:30:18;;;;;;;95.93;55.27;;;-0.30;1.00;;;;;;10393372;28;20503;-82
2023/12/04 07:35:39;;;;;;;55.07;35.90;;;-0.40;1.00;;;;;;10410176;28;20226;-83
2023/12/04 07:41:01;;;;;;;41.03;24.87;;;-0.30;1.00;;;;;;10421105;28;20214;-84
2023/12/04 07:46:22;;;;;;;25.17;16.47;;;-0.30;1.00;;;;;;10407688;28;20382;-82
2023/12/04 07:51:43;;;;;;;27.20;18.03;;;-0.20;99.90;;;;;;10379520;28;20568;-83
2023/12/04 07:57:05;;;;;;;29.17;16.70;;;-0.20;99.90;;;;;;10394387;28;20522;-79
2023/12/04 08:02:26;;;;;;;29.47;16.10;;;-0.10;99.90;;;;;;10403702;28;20458;-83
2023/12/04 08:07:47;;;;;;;34.93;19.27;;;-0.10;1.00;;;;;;10431373;28;20311;-82
2023/12/04 08:13:09;;;;;;;32.47;18.67;;;-0.10;1.00;;;;;;10358885;28;20205;-80
2023/12/04 08:18:30;;;;;;;41.33;21.33;;;0.00;99.90;;;;;;10393026;28;20197;-80
2023/12/04 08:23:52;;;;;;;56.17;27.37;;;0.00;1.00;;;;;;10400337;28;20246;-78
2023/12/04 08:29:13;;;;;;;47.70;25.97;;;0.00;99.90;;;;;;10404002;28;20427;-81
2023/12/04 08:34:35;;;;;;;55.67;28.30;;;0.00;1.00;;;;;;10362347;28;20209;-79
2023/12/04 08:39:56;;;;;;;54.13;27.50;;;0.10;80.40;;;;;;10386437;28;20220;-79
2023/12/04 08:45:18;;;;;;;41.20;22.73;;;0.20;1.00;;;;;;10354273;28;20495;-82
2023/12/04 08:50:40;;;;;;;32.20;18.30;;;0.30;1.00;;;;;;10326494;28;20236;-81
2023/12/04 08:56:02;;;;;;;34.43;18.87;;;0.30;1.00;;;;;;10365287;28;20205;-81
2023/12/04 09:01:23;;;;;;;30.80;16.87;;;0.30;99.90;;;;;;10360606;28;20229;-82
2023/12/04 09:06:44;;;;;;;28.90;17.03;;;0.40;1.00;;;;;;10416957;28;20200;-81
2023/12/04 09:12:10;;;;;;;35.40;19.80;;;0.30;1.00;;;;;;10430434;28;20464;-85
2023/12/04 09:17:31;;;;;;;40.03;21.63;;;0.30;1.00;;;;;;10417071;28;20201;-85
2023/12/04 09:22:55;;;;;;;40.23;20.40;;;0.30;1.00;;;;;;10379915;28;20311;-82
2023/12/04 09:28:20;;;;;;;42.87;23.27;;;0.30;64.60;;;;;;10380594;28;20221;-91
2023/12/04 09:33:41;;;;;;;35.07;19.40;;;0.40;1.00;;;;;;10397574;28;20393;-88
2023/12/04 09:39:03;;;;;;;34.83;19.10;;;0.40;1.00;;;;;;10413918;28;20193;-78
2023/12/04 09:44:27;;;;;;;28.63;17.23;;;0.40;99.90;;;;;;10407340;28;20323;-79
2023/12/04 09:49:52;;;;;;;27.23;15.80;;;0.40;99.90;;;;;;10393952;28;20422;-78
2023/12/04 09:55:15;;;;;;;23.90;14.30;;;0.50;99.90;;;;;;10402087;28;20503;-81
2023/12/04 10:00:37;;;;;;;24.07;14.70;;;0.60;99.90;;;;;;10392207;28;20224;-80
2023/12/04 10:05:58;;;;;;;43.77;21.13;;;0.60;1.00;;;;;;10409776;28;20204;-81
2023/12/04 10:11:20;;;;;;;24.10;14.80;;;0.70;1.00;;;;;;10382437;28;20438;-83
2023/12/04 10:16:41;;;;;;;25.27;14.73;;;0.80;99.90;;;;;;10379569;28;20205;-87
2023/12/04 10:22:03;;;;;;;23.20;14.27;;;0.80;99.90;;;;;;10380570;28;20299;-81
2023/12/04 10:27:26;;;;;;;31.40;17.37;;;0.70;99.90;;;;;;10389129;28;20220;-80
2023/12/04 10:32:48;;;;;;;82.47;45.50;;;0.80;99.90;;;;;;10408876;28;20284;-81
2023/12/04 10:38:09;;;;;;;30.13;19.60;;;0.80;99.90;;;;;;10415479;28;20202;-81
2023/12/04 10:43:32;;;;;;;27.50;14.50;;;1.00;1.00;;;;;;10419679;28;20246;-87
2023/12/04 10:48:54;;;;;;;51.97;21.50;;;1.10;1.00;;;;;;10399779;28;20207;-84
2023/12/04 10:54:16;;;;;;;42.50;20.27;;;1.10;99.90;;;;;;10384282;28;20508;-81
2023/12/04 10:59:38;;;;;;;22.07;13.20;;;1.20;99.90;;;;;;10371407;28;20223;-81
2023/12/04 11:05:13;;;;;;;27.57;16.03;;;1.30;99.90;;;;;;10424010;28;20213;-81
2023/12/04 11:10:45;;;;;;;19.67;12.50;;;1.50;99.90;;;;;;10418872;28;20207;-81
2023/12/04 11:16:09;;;;;;;16.17;11.20;;;1.60;1.00;;;;;;10384568;28;20191;-84
2023/12/04 11:21:33;;;;;;;20.37;11.73;;;1.60;20.70;;;;;;10355252;28;20307;-81
2023/12/04 11:26:55;;;;;;;16.47;11.30;;;1.60;13.30;;;;;;10376923;28;20539;-79
2023/12/04 11:32:18;;;;;;;20.17;11.57;;;1.50;99.90;;;;;;10391429;28;20205;-81
2023/12/04 11:37:40;;;;;;;17.93;11.50;;;1.50;1.00;;;;;;10370224;28;20234;-80
2023/12/04 11:43:01;;;;;;;17.97;11.57;;;1.30;48.00;;;;;;10381659;28;20221;-81
2023/12/04 11:48:24;;;;;;;17.63;11.37;;;1.10;99.90;;;;;;10397435;28;20189;-82
2023/12/04 11:53:45;;;;;;;21.37;12.53;;;1.10;1.00;;;;;;10413144;28;20207;-81
2023/12/04 11:59:08;;;;;;;19.90;12.67;;;1.10;1.00;;;;;;10412110;28;20204;-80
2023/12/04 12:04:29;;;;;;;25.10;13.03;;;1.20;99.90;;;;;;10413114;28;20646;-81
2023/12/04 12:09:50;;;;;;;26.53;15.80;;;1.20;1.00;;;;;;10395312;28;20232;-82
2023/12/04 12:15:12;;;;;;;24.27;14.30;;;1.10;1.00;;;;;;10397207;28;20251;-80
2023/12/04 12:20:37;;;;;;;33.20;19.40;;;1.10;1.00;;;;;;10370870;28;20229;-82
2023/12/04 12:25:58;;;;;;;29.10;16.37;;;1.00;1.00;;;;;;10406939;28;20209;-82
2023/12/04 12:31:22;;;;;;;35.90;18.23;;;1.00;1.00;;;;;;10381281;28;20506;-82
2023/12/04 12:36:44;;;;;;;40.50;21.07;;;0.80;1.00;;;;;;10401287;28;20507;-80
2023/12/04 12:42:06;;;;;;;27.80;16.20;;;0.90;1.00;;;;;;10408357;28;20233;-82
2023/12/04 12:47:27;;;;;;;105.00;41.47;;;0.90;1.00;;;;;;10391571;28;20220;-85
2023/12/04 12:52:49;;;;;;;59.97;25.20;;;0.90;1.00;;;;;;10355868;28;20267;-86
2023/12/04 12:58:10;;;;;;;43.60;21.10;;;0.80;1.00;;;;;;10370198;28;20192;-87
2023/12/04 13:03:31;;;;;;;33.93;17.40;;;0.90;1.00;;;;;;10392871;28;20543;-81
2023/12/04 13:08:53;;;;;;;16.40;10.43;;;0.80;1.00;;;;;;10396932;28;20201;-81
2023/12/04 13:14:14;;;;;;;17.77;11.67;;;0.80;99.90;;;;;;10378981;28;20213;-84
2023/12/04 13:19:36;;;;;;;19.00;11.57;;;0.70;1.00;;;;;;10406557;28;20205;-80
2023/12/04 13:24:57;;;;;;;22.30;14.33;;;0.70;1.00;;;;;;10385471;28;20242;-82
2023/12/04 13:30:19;;;;;;;27.97;13.70;;;0.70;1.00;;;;;;10379978;28;20279;-80
2023/12/04 13:35:41;;;;;;;26.80;15.80;;;0.60;1.00;;;;;;10394744;28;20502;-80
2023/12/04 13:43:49;;;;;;;24.33;14.00;;;0.60;99.90;;;;;;10378875;28;20327;-86
2023/12/04 13:46:49;;;;;;;25.63;16.27;;;0.60;99.90;;;;;;10385954;28;20215;-82
2023/12/04 13:52:10;;;;;;;31.40;17.13;;;0.60;79.60;;;;;;10395024;28;20244;-80
2023/12/04 13:57:43;;;;;;;31.10;19.13;;;0.50;99.90;;;;;;10392168;28;20527;-82
2023/12/04 14:03:05;;;;;;;22.93;14.13;;;0.50;99.90;;;;;;10406316;28;20227;-82
2023/12/04 14:08:27;;;;;;;24.70;14.73;;;0.40;5.80;;;;;;10394381;28;20468;-82
2023/12/04 14:13:48;;;;;;;33.83;19.57;;;0.30;1.00;;;;;;10392755;28;20196;-80
2023/12/04 14:19:09;;;;;;;26.30;16.40;;;0.20;1.00;;;;;;10408841;28;20214;-89
2023/12/04 14:24:31;;;;;;;30.07;18.57;;;0.10;1.00;;;;;;10378954;28;20483;-91
2023/12/04 14:29:53;;;;;;;19.40;11.63;;;0.10;1.00;;;;;;10419061;28;20207;-86
2023/12/04 14:35:14;;;;;;;18.17;11.10;;;0.10;1.00;;;;;;10405473;28;20415;-83
2023/12/04 14:40:36;;;;;;;14.13;9.70;;;-0.10;1.00;;;;;;10391454;28;20507;-79
2023/12/04 14:45:57;;;;;;;25.60;16.67;;;0.00;99.90;;;;;;10367164;28;20227;-78
2023/12/04 14:51:18;;;;;;;19.77;13.70;;;0.00;99.90;;;;;;10398282;28;20228;-82
2023/12/04 14:57:39;;;;;;;23.93;14.83;;;-0.10;99.90;;;;;;10379959;28;20193;-80
2023/12/04 15:02:58;;;;;;;40.23;22.17;;;-0.30;1.00;;;;;;10389898;28;20558;-81
2023/12/04 15:19:34;;;;;;;31.47;20.10;;;-0.40;90.10;;;;;;10411162;28;20212;-83
2023/12/04 15:24:56;;;;;;;31.70;18.83;;;-0.40;1.00;;;;;;10394990;28;20249;-83
2023/12/04 15:30:17;;;;;;;35.23;19.57;;;-0.30;1.00;;;;;;10389732;28;20219;-83
2023/12/04 15:35:39;;;;;;;31.27;18.17;;;-0.30;92.70;;;;;;10375082;28;20200;-82
2023/12/04 15:41:00;;;;;;;30.73;18.83;;;-0.30;53.70;;;;;;10379521;28;20255;-78
2023/12/04 15:46:22;;;;;;;28.47;17.27;;;-0.30;1.00;;;;;;10387586;28;20224;-81
2023/12/04 15:51:44;;;;;;;28.13;17.27;;;-0.30;1.00;;;;;;10388322;28;20242;-79
2023/12/04 15:57:05;;;;;;;25.80;17.20;;;-0.30;99.90;;;;;;10388061;28;20287;-79
2023/12/04 16:02:27;;;;;;;32.40;20.07;;;-0.20;99.90;;;;;;10360168;28;20299;-79
2023/12/04 16:07:51;;;;;;;32.70;18.30;;;-0.20;1.00;;;;;;10352594;28;20197;-81
2023/12/04 16:13:12;;;;;;;35.57;22.00;;;-0.10;1.00;;;;;;10337812;28;20432;-80
2023/12/04 16:18:33;;;;;;;49.47;26.97;;;-0.30;99.90;;;;;;10378023;28;20197;-79
2023/12/04 16:23:57;;;;;;;41.33;23.00;;;-0.30;1.00;;;;;;10377645;28;20240;-78
2023/12/04 16:29:19;;;;;;;44.60;24.83;;;-0.20;1.00;;;;;;10437594;28;20196;-79
2023/12/04 16:34:40;;;;;;;45.90;25.20;;;-0.30;1.00;;;;;;10381494;28;20200;-81
2023/12/04 16:40:03;;;;;;;51.07;24.97;;;-0.40;99.90;;;;;;10377083;28;20491;-80
2023/12/04 16:45:24;;;;;;;45.90;27.10;;;-0.50;1.00;;;;;;10402008;28;20244;-79
2023/12/04 16:50:45;;;;;;;51.00;27.73;;;-0.40;99.90;;;;;;10398227;28;20314;-79
2023/12/04 16:56:13;;;;;;;47.27;26.87;;;-0.60;1.00;;;;;;10386771;28;20210;-80
2023/12/04 17:01:35;;;;;;;68.00;36.47;;;-0.50;1.00;;;;;;10412871;28;20341;-80
2023/12/04 17:06:56;;;;;;;138.13;53.43;;;-0.50;99.90;;;;;;10413943;28;20204;-80
2023/12/04 17:12:17;;;;;;;71.57;37.47;;;-0.40;1.00;;;;;;10402318;28;20250;-79
2023/12/04 17:17:39;;;;;;;50.03;29.63;;;-0.60;1.00;;;;;;10400001;28;20207;-80
2023/12/04 17:23:00;;;;;;;48.87;26.00;;;-0.80;99.90;;;;;;10413383;28;20227;-79
2023/12/04 17:28:22;;;;;;;46.43;25.87;;;-0.90;99.90;;;;;;10384886;28;20429;-79
2023/12/04 17:33:43;;;;;;;57.30;28.67;;;-1.10;57.20;;;;;;10397879;28;20223;-79
2023/12/04 17:39:07;;;;;;;52.93;28.30;;;-1.00;1.00;;;;;;10384625;28;20198;-80
2023/12/04 17:44:28;;;;;;;46.57;24.00;;;-1.10;99.90;;;;;;10398256;28;20222;-80
2023/12/04 17:49:49;;;;;;;43.23;23.40;;;-1.30;99.90;;;;;;10362031;28;20240;-80
2023/12/04 17:55:11;;;;;;;43.10;23.20;;;-1.40;1.00;;;;;;10371094;28;20226;-80
2023/12/04 18:00:32;;;;;;;40.13;20.10;;;-1.40;99.90;;;;;;10358257;28;20192;-80
2023/12/04 18:05:54;;;;;;;48.50;24.73;;;-1.50;1.00;;;;;;10384646;28;20225;-79
2023/12/04 18:11:14;;;;;;;44.33;23.10;;;-1.50;98.50;;;;;;10397045;28;20203;-79
2023/12/04 18:16:36;;;;;;;49.93;24.47;;;-1.30;99.90;;;;;;10383143;28;20206;-79
2023/12/04 18:21:57;;;;;;;38.57;22.03;;;-1.40;99.90;;;;;;10385869;28;20269;-79
2023/12/04 18:27:18;;;;;;;38.60;21.20;;;-1.50;1.00;;;;;;10382612;28;20211;-79
2023/12/04 18:32:40;;;;;;;44.03;22.90;;;-1.60;1.00;;;;;;10383128;28;20221;-79
2023/12/04 18:38:18;;;;;;;49.90;24.13;;;-1.50;1.00;;;;;;10394503;28;20202;-79
2023/12/04 18:43:39;;;;;;;53.50;26.30;;;-1.60;99.90;;;;;;10382421;28;20534;-79
2023/12/04 18:49:02;;;;;;;42.43;22.70;;;-1.70;1.00;;;;;;10382332;28;20403;-78
2023/12/04 18:54:23;;;;;;;59.03;29.60;;;-1.80;1.00;;;;;;10395981;28;20510;-80
2023/12/04 18:59:44;;;;;;;45.13;24.27;;;-1.90;1.00;;;;;;10368202;28;20200;-78
2023/12/04 19:05:07;;;;;;;47.40;24.57;;;-2.00;1.00;;;;;;10395403;28;20223;-78
2023/12/04 19:10:28;;;;;;;47.60;27.97;;;-1.90;99.90;;;;;;10410318;28;20202;-78
2023/12/04 19:15:50;;;;;;;57.17;29.57;;;-2.00;1.00;;;;;;10395164;28;20231;-80
2023/12/04 19:21:11;;;;;;;63.13;28.67;;;-1.90;1.00;;;;;;10395366;28;20488;-80
2023/12/04 19:26:33;;;;;;;93.77;53.70;;;-2.10;99.90;;;;;;10394975;28;20206;-80
2023/12/04 19:31:54;;;;;;;63.87;31.17;;;-2.10;1.00;;;;;;10381830;28;20399;-81
2023/12/04 19:37:15;;;;;;;71.30;30.97;;;-2.10;1.00;;;;;;10395683;28;20205;-80
2023/12/04 19:42:37;;;;;;;60.43;29.10;;;-2.20;99.90;;;;;;10398055;28;20224;-80
2023/12/04 19:47:58;;;;;;;55.40;27.00;;;-2.20;1.00;;;;;;10417016;28;20279;-80
2023/12/04 19:53:19;;;;;;;50.87;26.20;;;-2.20;1.00;;;;;;10423495;28;20261;-80
2023/12/04 19:58:40;;;;;;;44.43;23.30;;;-2.30;96.60;;;;;;10402499;28;20390;-80
2023/12/04 20:04:02;;;;;;;66.10;29.57;;;-2.40;99.90;;;;;;10403380;28;20536;-80
2023/12/04 20:09:27;;;;;;;62.93;29.70;;;;;;;;;;10416290;28;20210;-80
2023/12/04 20:14:48;;;;;;;52.53;27.73;;;-2.60;1.00;;;;;;10415604;28;20194;-80
2023/12/04 20:20:11;;;;;;;56.70;26.93;;;-2.50;99.90;;;;;;10415497;28;20192;-79
2023/12/04 20:25:32;;;;;;;57.93;28.07;;;-2.40;1.00;;;;;;10399655;28;20237;-79
2023/12/04 20:30:54;;;;;;;50.87;26.50;;;-2.60;1.00;;;;;;10413903;28;20200;-80
2023/12/04 20:36:15;;;;;;;60.87;28.10;;;-2.70;99.90;;;;;;10398078;28;20209;-80
2023/12/04 20:41:36;;;;;;;52.17;24.77;;;-2.70;99.90;;;;;;10386610;28;20265;-79
2023/12/04 20:46:59;;;;;;;49.97;24.07;;;-2.90;37.50;;;;;;10386936;28;20201;-80
2023/12/04 20:52:20;;;;;;;55.90;27.83;;;-3.00;1.00;;;;;;10399057;28;20229;-79
2023/12/04 20:57:41;;;;;;;51.50;26.13;;;-3.00;99.90;;;;;;10397563;28;20276;-79
2023/12/04 21:03:03;;;;;;;51.70;24.80;;;-3.30;47.50;;;;;;10399841;28;20236;-79
2023/12/04 21:08:24;;;;;;;47.37;23.33;;;-3.40;99.90;;;;;;10397246;28;20387;-79
2023/12/04 21:13:45;;;;;;;34.17;19.40;;;-3.50;1.00;;;;;;10399784;28;20200;-80
2023/12/04 21:19:06;;;;;;;39.83;20.03;;;-3.60;1.00;;;;;;10372280;28;20193;-79
2023/12/04 21:24:31;;;;;;;41.70;20.67;;;-3.70;99.90;;;;;;10385466;28;20432;-79
2023/12/04 21:29:52;;;;;;;46.80;22.50;;;-3.90;99.90;;;;;;10393524;28;20204;-80
2023/12/04 21:35:13;;;;;;;52.77;24.10;;;-4.00;1.00;;;;;;10398972;28;20233;-79
2023/12/04 21:40:35;;;;;;;54.63;24.07;;;-4.10;99.90;;;;;;10398070;28;20197;-79
2023/12/04 21:45:56;;;;;;;44.07;21.77;;;-4.10;1.00;;;;;;10362426;28;20461;-79
2023/12/04 21:51:17;;;;;;;48.53;22.20;;;-4.00;99.90;;;;;;10371371;28;20266;-80
2023/12/04 21:56:38;;;;;;;46.60;22.47;;;-4.00;99.90;;;;;;10374653;28;20214;-79
2023/12/04 22:01:59;;;;;;;50.53;22.63;;;-3.90;1.00;;;;;;10371250;28;20212;-79
2023/12/04 22:07:21;;;;;;;51.83;23.73;;;-4.00;1.00;;;;;;10383467;28;20204;-79
2023/12/04 22:12:42;;;;;;;61.70;26.20;;;-4.00;99.90;;;;;;10397493;28;20276;-80
2023/12/04 22:18:03;;;;;;;64.40;27.40;;;-4.00;1.00;;;;;;10396413;28;20444;-79
2023/12/04 22:23:25;;;;;;;50.97;24.53;;;-4.00;1.00;;;;;;10409529;28;20223;-79
2023/12/04 22:28:46;;;;;;;57.80;26.40;;;-4.00;1.00;;;;;;10382966;28;20220;-79
2023/12/04 22:34:07;;;;;;;47.13;21.27;;;-4.00;1.00;;;;;;10397456;28;20220;-79
2023/12/04 22:39:28;;;;;;;44.30;21.27;;;-4.20;1.00;;;;;;10395415;28;20212;-79
2023/12/04 22:44:49;;;;;;;49.10;22.87;;;-4.20;1.00;;;;;;10396314;28;20228;-79
2023/12/04 22:50:11;;;;;;;47.57;22.10;;;-4.10;1.00;;;;;;10395665;28;20308;-80
2023/12/04 22:55:32;;;;;;;54.97;24.33;;;-4.10;1.00;;;;;;10408735;28;20206;-79
2023/12/04 23:00:53;;;;;;;57.57;24.63;;;-4.00;4.80;;;;;;10384468;28;20204;-80
2023/12/04 23:06:16;;;;;;;58.03;25.17;;;-4.10;1.00;;;;;;10381609;28;20236;-80
2023/12/04 23:11:37;;;;;;;58.63;24.97;;;-4.30;99.90;;;;;;10369411;28;20231;-79
2023/12/04 23:16:59;;;;;;;57.37;25.60;;;-4.30;99.90;;;;;;10356134;28;20205;-80
2023/12/04 23:22:20;;;;;;;63.27;25.93;;;-4.30;34.10;;;;;;10355841;28;20221;-79
2023/12/04 23:27:42;;;;;;;56.33;25.37;;;-4.50;6.40;;;;;;10392872;28;20230;-79
2023/12/04 23:33:03;;;;;;;56.00;25.00;;;-4.20;1.00;;;;;;10379838;28;20205;-80
2023/12/04 23:38:24;;;;;;;61.23;25.67;;;-4.10;1.00;;;;;;10366816;28;20237;-79
2023/12/04 23:43:46;;;;;;;60.27;26.33;;;-4.10;1.00;;;;;;10395095;28;20224;-79
2023/12/04 23:49:07;;;;;;;57.67;25.53;;;-4.10;99.90;;;;;;10380693;28;20225;-79
2023/12/04 23:54:30;;;;;;;54.93;25.43;;;-4.00;1.00;;;;;;10393563;28;20372;-80
2023/12/04 23:59:51;;;;;;;56.63;25.10;;;-4.10;99.90;;;;;;10397205;28;20197;-79
